Time;durP1;ratioP1;P1;durP2;ratioP2;P2;SDS_P1;SDS_P2;PMS_P1;PMS_P2;Temp;Humidity;BMP_temperature;BMP_pressure;BME280_temperature;BME280_humidity;BME280_pressure;Samples;Min_cycle;Max_cycle;Signal;HPM_P1;HPM_P2
2022/09/27 03:03:23;;;;;;;0.30;0.30;;;20.80;46.60;;;;;;4924625;23;45560;-70
2022/09/27 03:05:56;;;;;;;0.40;0.38;;;20.80;46.70;;;;;;4929797;28;45528;-67
2022/09/27 03:08:22;;;;;;;;;;;20.80;46.70;;;;;;4923541;28;45233;-66
2022/09/27 03:10:47;;;;;;;0.85;0.40;;;20.70;46.70;;;;;;4940567;28;45064;-67
2022/09/27 03:13:13;;;;;;;1.50;0.50;;;20.80;46.80;;;;;;4941526;28;45474;-69
2022/09/27 03:15:39;;;;;;;0.50;0.35;;;20.80;46.80;;;;;;4933284;28;45234;-68
2022/09/27 03:18:04;;;;;;;0.50;0.40;;;20.80;46.70;;;;;;4940830;28;45124;-66
2022/09/27 03:20:30;;;;;;;0.82;0.50;;;20.80;46.70;;;;;;4906418;28;45349;-65
2022/09/27 03:22:56;;;;;;;0.52;0.40;;;20.80;46.70;;;;;;4940384;28;45327;-66
2022/09/27 03:25:21;;;;;;;0.77;0.40;;;20.70;46.70;;;;;;4922421;28;45438;-67
2022/09/27 03:27:47;;;;;;;0.68;0.40;;;20.70;46.60;;;;;;4928322;28;45204;-66
2022/09/27 03:30:13;;;;;;;1.33;0.47;;;20.80;46.70;;;;;;4939918;28;45285;-66
2022/09/27 03:32:43;;;;;;;0.80;0.40;;;20.70;46.70;;;;;;4936361;28;45486;-67
2022/09/27 03:35:09;;;;;;;0.50;0.40;;;20.80;46.70;;;;;;4933705;28;45025;-68
2022/09/27 03:37:34;;;;;;;0.47;0.40;;;20.70;46.70;;;;;;4937446;28;46014;-66
2022/09/27 03:40:00;;;;;;;0.40;0.40;;;20.70;46.70;;;;;;4939631;28;45252;-66
2022/09/27 03:42:26;;;;;;;0.52;0.38;;;20.70;46.70;;;;;;4937803;28;45228;-70
2022/09/27 03:44:51;;;;;;;0.60;0.50;;;20.70;46.70;;;;;;4935930;28;45040;-65
2022/09/27 03:47:17;;;;;;;1.02;0.40;;;20.70;46.70;;;;;;4932976;28;45875;-65
2022/09/27 03:49:43;;;;;;;0.40;0.30;;;20.70;46.70;;;;;;4921194;28;45350;-69
2022/09/27 03:52:08;;;;;;;2.63;0.40;;;20.70;46.70;;;;;;4936249;28;45560;-68
2022/09/27 03:54:34;;;;;;;0.65;0.50;;;20.70;46.70;;;;;;4933318;28;44801;-66
2022/09/27 03:56:59;;;;;;;0.60;0.45;;;20.70;46.70;;;;;;4905250;28;47300;-67
2022/09/27 03:59:25;;;;;;;2.28;0.30;;;20.70;46.70;;;;;;4922937;28;45214;-67
2022/09/27 04:01:51;;;;;;;0.40;0.40;;;20.70;46.70;;;;;;4936597;28;45514;-66
2022/09/27 04:04:17;;;;;;;0.65;0.35;;;20.70;46.70;;;;;;4933612;28;45421;-66
2022/09/27 04:06:43;;;;;;;0.88;0.25;;;20.70;46.70;;;;;;4933666;28;45988;-69
2022/09/27 04:09:08;;;;;;;0.52;0.30;;;20.70;46.70;;;;;;4934569;28;45185;-65
2022/09/27 04:11:34;;;;;;;0.55;0.38;;;20.70;46.70;;;;;;4936664;28;44711;-67
2022/09/27 04:14:00;;;;;;;1.70;0.40;;;20.70;46.60;;;;;;4935281;28;45329;-67
2022/09/27 04:16:26;;;;;;;0.40;0.30;;;20.70;46.60;;;;;;4929121;28;45473;-66
2022/09/27 04:18:52;;;;;;;0.40;0.40;;;20.70;46.60;;;;;;4931694;28;45623;-65
2022/09/27 04:21:19;;;;;;;0.55;0.40;;;20.70;46.70;;;;;;4935635;28;45258;-66
2022/09/27 04:23:45;;;;;;;0.35;0.32;;;20.60;46.70;;;;;;4916347;28;45130;-66
2022/09/27 04:26:12;;;;;;;4.72;0.50;;;20.70;46.70;;;;;;4935507;28;46034;-67
2022/09/27 04:28:38;;;;;;;0.73;0.40;;;20.70;46.70;;;;;;4916939;28;45644;-66
2022/09/27 04:31:03;;;;;;;0.30;0.30;;;20.70;46.70;;;;;;4921057;28;45498;-66
2022/09/27 04:33:29;;;;;;;0.52;0.50;;;20.60;46.70;;;;;;4931919;28;45562;-68
2022/09/27 04:38:39;;;;;;;2.15;0.45;;;20.60;46.80;;;;;;4920689;28;45237;-67
2022/09/27 04:41:05;;;;;;;1.27;0.50;;;20.60;46.80;;;;;;4935242;28;45355;-66
2022/09/27 04:43:31;;;;;;;2.10;0.40;;;20.60;46.80;;;;;;4935359;28;45395;-66
2022/09/27 04:45:56;;;;;;;0.40;0.40;;;20.60;46.80;;;;;;4931637;28;46759;-66
2022/09/27 04:48:22;;;;;;;0.77;0.40;;;20.60;46.80;;;;;;4917289;28;45254;-68
2022/09/27 04:50:57;;;;;;;0.50;0.40;;;20.60;46.70;;;;;;4916594;28;44735;-66
2022/09/27 04:53:23;;;;;;;0.95;0.40;;;20.60;46.70;;;;;;4923245;28;44762;-66
2022/09/27 04:55:50;;;;;;;0.40;0.30;;;20.70;46.80;;;;;;4918045;28;45894;-69
2022/09/27 04:58:16;;;;;;;0.50;0.40;;;20.70;46.70;;;;;;4903792;28;45277;-66
2022/09/27 05:00:42;;;;;;;0.35;0.30;;;20.70;46.70;;;;;;4935607;28;45015;-67
2022/09/27 05:03:07;;;;;;;2.40;0.50;;;20.70;46.60;;;;;;4934760;28;45164;-67
2022/09/27 05:05:33;;;;;;;0.30;0.30;;;20.70;46.60;;;;;;4934078;28;46897;-67
2022/09/27 05:07:59;;;;;;;0.52;0.30;;;20.80;46.70;;;;;;4914721;28;45617;-64
2022/09/27 05:10:24;;;;;;;1.08;0.47;;;20.70;46.60;;;;;;4932391;28;45567;-67
2022/09/27 05:12:50;;;;;;;0.57;0.45;;;20.80;46.70;;;;;;4937655;28;45553;-67
2022/09/27 05:15:15;;;;;;;1.17;0.40;;;20.80;46.70;;;;;;4933369;28;45612;-68
2022/09/27 05:17:41;;;;;;;0.98;0.40;;;20.80;46.70;;;;;;4935666;28;44859;-66
2022/09/27 05:20:08;;;;;;;0.82;0.35;;;20.80;46.80;;;;;;4920431;28;45527;-68
2022/09/27 05:22:34;;;;;;;0.38;0.38;;;20.80;46.80;;;;;;4935826;28;45382;-67
2022/09/27 05:24:59;;;;;;;2.05;0.40;;;20.80;46.80;;;;;;4918919;28;45504;-70
2022/09/27 05:27:25;;;;;;;0.45;0.40;;;20.80;46.80;;;;;;4934348;28;45146;-66
2022/09/27 05:29:50;;;;;;;0.88;0.22;;;20.80;46.80;;;;;;4937114;28;44962;-64
2022/09/27 05:32:16;;;;;;;0.45;0.30;;;20.80;46.80;;;;;;4933927;28;45792;-66
2022/09/27 05:34:42;;;;;;;0.82;0.30;;;20.80;46.80;;;;;;4935164;28;46057;-65
2022/09/27 05:37:07;;;;;;;0.30;0.30;;;20.80;46.80;;;;;;4933935;28;46165;-63
2022/09/27 05:39:33;;;;;;;0.50;0.40;;;20.80;46.80;;;;;;4937218;28;45193;-66
2022/09/27 05:41:58;;;;;;;0.80;0.40;;;20.80;46.80;;;;;;4936697;28;45458;-65
2022/09/27 05:44:24;;;;;;;0.20;0.20;;;20.80;46.80;;;;;;4936353;28;45959;-67
2022/09/27 05:46:50;;;;;;;0.32;0.32;;;20.80;46.80;;;;;;4932797;28;44895;-63
2022/09/27 05:49:16;;;;;;;0.43;0.43;;;20.80;46.80;;;;;;4934217;28;45490;-66
2022/09/27 05:51:42;;;;;;;0.50;0.30;;;20.80;46.80;;;;;;4935095;28;45253;-66
2022/09/27 05:54:08;;;;;;;0.45;0.40;;;20.80;46.80;;;;;;4920145;28;45243;-66
2022/09/27 05:56:33;;;;;;;0.30;0.30;;;20.80;46.80;;;;;;4916524;28;45606;-64
2022/09/27 05:58:59;;;;;;;0.43;0.40;;;20.80;46.80;;;;;;4917511;28;45158;-67
2022/09/27 06:01:26;;;;;;;0.50;0.50;;;20.80;46.80;;;;;;4933646;28;45356;-65
2022/09/27 06:03:53;;;;;;;0.60;0.40;;;20.80;46.90;;;;;;4935864;28;46041;-62
2022/09/27 06:06:20;;;;;;;0.40;0.30;;;20.70;46.80;;;;;;4933786;28;45596;-66
2022/09/27 06:08:46;;;;;;;0.55;0.30;;;20.70;46.80;;;;;;4934346;28;45541;-66
2022/09/27 06:11:12;;;;;;;0.40;0.40;;;20.70;46.80;;;;;;4924974;28;46280;-65
2022/09/27 06:13:40;;;;;;;0.63;0.40;;;20.70;46.80;;;;;;4928691;28;46311;-68
2022/09/27 06:16:08;;;;;;;0.63;0.40;;;20.70;46.80;;;;;;4930133;28;45343;-67
2022/09/27 06:18:34;;;;;;;0.40;0.30;;;20.70;46.80;;;;;;4931020;28;45549;-68
2022/09/27 06:21:00;;;;;;;0.50;0.50;;;20.70;46.80;;;;;;4931126;28;45579;-65
2022/09/27 06:23:26;;;;;;;0.60;0.32;;;20.70;46.80;;;;;;4932030;28;46042;-63
2022/09/27 06:25:51;;;;;;;0.30;0.30;;;20.70;46.70;;;;;;4934157;28;45600;-66
2022/09/27 06:28:17;;;;;;;1.27;0.47;;;20.70;46.80;;;;;;4931886;28;45505;-66
2022/09/27 06:30:44;;;;;;;0.90;0.50;;;20.70;46.70;;;;;;4905277;28;45329;-66
2022/09/27 06:33:14;;;;;;;0.28;0.28;;;20.80;46.70;;;;;;4936006;28;46003;-65
2022/09/27 06:35:41;;;;;;;0.28;0.28;;;20.80;46.60;;;;;;4935903;28;44740;-63
2022/09/27 06:38:08;;;;;;;0.47;0.30;;;20.90;46.50;;;;;;4934734;28;45587;-67
2022/09/27 06:40:34;;;;;;;0.98;0.40;;;21.00;46.40;;;;;;4903644;28;45111;-67
2022/09/27 06:43:07;;;;;;;0.60;0.30;;;21.10;46.20;;;;;;4933061;28;45942;-67
2022/09/27 06:45:34;;;;;;;;;;;21.30;46.60;;;;;;4933292;28;45312;-66
2022/09/27 06:48:01;;;;;;;0.30;0.30;;;21.40;45.90;;;;;;4931136;28;45229;-69
2022/09/27 06:50:31;;;;;;;0.38;0.30;;;21.60;45.80;;;;;;4914514;28;45456;-65
2022/09/27 06:52:57;;;;;;;1.17;0.30;;;21.70;45.60;;;;;;4886716;28;45925;-69
2022/09/27 06:55:22;;;;;;;0.70;0.40;;;21.80;45.50;;;;;;4931121;28;45639;-68
2022/09/27 07:00:37;;;;;;;0.98;0.40;;;22.00;45.30;;;;;;4931589;28;45774;-62
2022/09/27 07:03:03;;;;;;;0.40;0.40;;;22.10;45.30;;;;;;4915307;28;47227;-67
2022/09/27 07:05:29;;;;;;;0.30;0.30;;;22.20;45.20;;;;;;4917273;28;45478;-63
2022/09/27 07:07:57;;;;;;;1.85;0.35;;;22.30;45.10;;;;;;4922450;28;45556;-65
2022/09/27 07:10:24;;;;;;;0.17;0.13;;;22.40;45.00;;;;;;4936810;28;45153;-68
2022/09/27 07:12:51;;;;;;;0.55;0.30;;;22.60;45.00;;;;;;4917987;28;46356;-65
2022/09/27 07:15:17;;;;;;;0.65;0.30;;;22.70;44.80;;;;;;4935994;28;44812;-62
2022/09/27 07:17:43;;;;;;;0.32;0.28;;;22.80;44.70;;;;;;4921908;28;45280;-65
2022/09/27 07:20:08;;;;;;;1.20;0.35;;;22.80;44.60;;;;;;4935790;28;45320;-64
2022/09/27 07:22:41;;;;;;;0.95;0.50;;;22.90;44.50;;;;;;4938829;28;46210;-63
2022/09/27 07:25:07;;;;;;;0.25;0.20;;;23.00;44.40;;;;;;4938928;28;45265;-63
2022/09/27 07:27:33;;;;;;;0.40;0.30;;;23.10;44.40;;;;;;4934229;28;45214;-64
2022/09/27 07:30:00;;;;;;;0.30;0.30;;;23.20;44.30;;;;;;4936582;28;44773;-63
2022/09/27 07:32:25;;;;;;;0.30;0.20;;;23.20;44.20;;;;;;4918385;28;45888;-64
2022/09/27 07:34:51;;;;;;;0.75;0.30;;;23.30;44.20;;;;;;4932645;28;45466;-62
2022/09/27 07:37:17;;;;;;;0.85;0.20;;;23.40;44.10;;;;;;4937834;28;44910;-62
2022/09/27 07:39:43;;;;;;;0.38;0.30;;;23.50;44.00;;;;;;4939198;28;45503;-64
2022/09/27 07:42:09;;;;;;;0.57;0.20;;;23.50;43.90;;;;;;4936588;28;45896;-67
2022/09/27 07:44:34;;;;;;;0.30;0.30;;;23.60;43.90;;;;;;4938828;28;45221;-64
2022/09/27 07:47:00;;;;;;;1.52;0.20;;;23.70;43.80;;;;;;4933675;28;45370;-63
2022/09/27 07:49:26;;;;;;;0.25;0.25;;;23.70;43.70;;;;;;4920791;28;45167;-63
2022/09/27 07:51:51;;;;;;;0.52;0.40;;;23.80;43.60;;;;;;4937530;28;46835;-64
2022/09/27 07:54:17;;;;;;;0.30;0.25;;;23.90;43.60;;;;;;4928096;28;45224;-63
2022/09/27 07:56:44;;;;;;;0.85;0.20;;;23.90;43.50;;;;;;4935704;28;45389;-65
2022/09/27 07:59:10;;;;;;;;;;;24.00;43.40;;;;;;4938485;28;45611;-66
2022/09/27 08:01:35;;;;;;;;;;;24.00;43.00;;;;;;4935646;28;45289;-64
2022/09/27 08:04:01;;;;;;;;;;;24.10;42.90;;;;;;4937566;28;45526;-64
2022/09/27 08:06:26;;;;;;;;;;;24.20;42.80;;;;;;4934720;28;45412;-63
2022/09/27 08:08:52;;;;;;;;;;;24.20;42.70;;;;;;4936971;28;45195;-65
2022/09/27 08:11:17;;;;;;;;;;;24.30;43.20;;;;;;4935560;28;46112;-66
2022/09/27 08:13:43;;;;;;;;;;;24.30;42.50;;;;;;4938776;28;45434;-66
2022/09/27 08:16:10;;;;;;;;;;;24.40;42.50;;;;;;4938765;28;45323;-62
2022/09/27 08:18:35;;;;;;;;;;;24.40;42.40;;;;;;4937034;28;45049;-63
2022/09/27 08:21:01;;;;;;;;;;;24.40;42.40;;;;;;4937058;28;45851;-59
2022/09/27 08:23:27;;;;;;;;;;;24.40;42.30;;;;;;4937591;28;45460;-64
2022/09/27 08:25:52;;;;;;;;;;;24.50;42.30;;;;;;4935485;28;45444;-62
2022/09/27 08:28:18;;;;;;;;;;;24.50;42.40;;;;;;4910343;28;45918;-62
2022/09/27 08:30:43;;;;;;;;;;;24.60;42.20;;;;;;4936790;28;46018;-61
2022/09/27 08:33:09;;;;;;;;;;;24.60;42.10;;;;;;4937932;28;45245;-62
2022/09/27 08:35:35;;;;;;;;;;;24.70;42.10;;;;;;4937158;28;45453;-62
2022/09/27 08:38:00;;;;;;;;;;;24.70;42.10;;;;;;4936813;28;45463;-62
2022/09/27 08:40:45;;;;;;;;;;;24.70;42.00;;;;;;4934211;28;46531;-62
2022/09/27 08:43:10;;;;;;;;;;;24.70;42.10;;;;;;4935181;28;44904;-62
2022/09/27 08:45:39;;;;;;;;;;;24.80;42.00;;;;;;4934947;28;45483;-61
2022/09/27 08:48:04;;;;;;;;;;;24.80;42.00;;;;;;4920443;28;45060;-62
2022/09/27 08:50:36;;;;;;;;;;;24.80;42.00;;;;;;4917506;28;46237;-64
2022/09/27 08:53:14;;;;;;;;;;;24.90;41.90;;;;;;4919445;28;45234;-61
2022/09/27 08:55:43;;;;;;;;;;;24.90;41.90;;;;;;4936777;28;45485;-61
2022/09/27 08:58:12;;;;;;;;;;;24.90;41.80;;;;;;4936843;28;45264;-62
2022/09/27 09:00:38;;;;;;;;;;;25.00;41.70;;;;;;4903117;28;46169;-64
2022/09/27 09:03:03;;;;;;;;;;;25.00;41.70;;;;;;4920800;28;44994;-62
2022/09/27 09:05:30;;;;;;;;;;;25.10;41.60;;;;;;4918670;28;45008;-63
2022/09/27 09:07:58;;;;;;;;;;;25.20;41.50;;;;;;4936258;28;45390;-61
2022/09/27 09:13:32;;;;;;;;;;;25.20;41.40;;;;;;4933633;28;45266;-63
2022/09/27 09:16:00;;;;;;;;;;;25.20;41.40;;;;;;4933034;28;44690;-61
2022/09/27 09:18:33;;;;;;;;;;;25.30;41.40;;;;;;4937086;28;45561;-61
2022/09/27 09:21:28;;;;;;;;;;;25.30;41.40;;;;;;4937036;28;45957;-61
2022/09/27 09:24:03;;;;;;;;;;;25.30;41.30;;;;;;4919051;28;45403;-62
2022/09/27 09:26:28;;;;;;;;;;;25.30;41.30;;;;;;4910974;28;45423;-61
2022/09/27 09:29:00;;;;;;;;;;;25.40;41.30;;;;;;4938869;28;45458;-62
2022/09/27 09:31:26;;;;;;;;;;;25.40;41.30;;;;;;4935522;28;45566;-64
2022/09/27 09:33:53;;;;;;;;;;;25.40;41.20;;;;;;4935614;28;45195;-64
2022/09/27 09:36:27;;;;;;;;;;;25.40;41.20;;;;;;4937314;28;45435;-62
2022/09/27 09:38:57;;;;;;;;;;;25.40;41.10;;;;;;4933073;28;45260;-62
2022/09/27 09:41:35;;;;;;;;;;;25.50;41.10;;;;;;4932910;28;45391;-62
2022/09/27 09:44:03;;;;;;;;;;;25.50;41.10;;;;;;4935161;28;45222;-62
2022/09/27 09:46:37;;;;;;;;;;;25.50;41.10;;;;;;4935064;28;45235;-62
2022/09/27 09:49:13;;;;;;;;;;;25.50;41.00;;;;;;4936146;28;45428;-65
2022/09/27 09:51:43;;;;;;;;;;;25.50;41.00;;;;;;4933426;28;45873;-63
2022/09/27 09:54:27;;;;;;;;;;;25.60;41.00;;;;;;4936714;28;45415;-63
2022/09/27 09:57:12;;;;;;;;;;;25.60;41.10;;;;;;4929724;28;45541;-63
2022/09/27 09:59:42;;;;;;;;;;;25.60;40.90;;;;;;4936521;28;45916;-62
2022/09/27 10:02:20;;;;;;;;;;;25.60;40.90;;;;;;4932616;28;46329;-64
2022/09/27 10:04:46;;;;;;;;;;;25.70;41.00;;;;;;4936655;28;45261;-63
2022/09/27 10:07:11;;;;;;;;;;;25.70;40.90;;;;;;4908201;28;45515;-64
2022/09/27 10:09:37;;;;;;;;;;;25.70;40.90;;;;;;4921214;28;45558;-59
2022/09/27 10:12:03;;;;;;;;;;;25.70;40.80;;;;;;4913180;28;45936;-62
2022/09/27 10:14:28;;;;;;;;;;;25.70;40.80;;;;;;4920684;28;45450;-63
2022/09/27 10:16:57;;;;;;;;;;;25.70;40.70;;;;;;4919737;28;45748;-63
2022/09/27 10:19:29;;;;;;;;;;;25.70;40.60;;;;;;4920044;28;45282;-61
2022/09/27 10:22:15;;;;;;;;;;;25.80;40.70;;;;;;4936044;28;46188;-61
2022/09/27 10:25:04;;;;;;;;;;;25.80;40.60;;;;;;4931045;28;45668;-62
2022/09/27 10:27:37;;;;;;;;;;;25.80;40.60;;;;;;4921539;28;45224;-63
2022/09/27 10:30:03;;;;;;;;;;;25.80;40.50;;;;;;4935814;28;45220;-62
2022/09/27 10:32:34;;;;;;;;;;;25.80;40.60;;;;;;4932959;28;46705;-66
2022/09/27 10:35:19;;;;;;;;;;;25.80;40.50;;;;;;4931975;28;45315;-63
2022/09/27 10:37:44;;;;;;;;;;;25.80;40.40;;;;;;4935320;28;45340;-65
2022/09/27 10:40:23;;;;;;;;;;;25.80;40.50;;;;;;4938452;28;45275;-64
2022/09/27 10:42:49;;;;;;;;;;;25.80;40.60;;;;;;4939240;28;45915;-70
2022/09/27 10:45:27;;;;;;;;;;;25.70;40.70;;;;;;4936303;28;45361;-63
2022/09/27 10:47:52;;;;;;;;;;;25.60;40.80;;;;;;4938801;28;45529;-63
2022/09/27 10:50:20;;;;;;;;;;;25.60;40.80;;;;;;4941235;28;45429;-64
2022/09/27 10:52:46;;;;;;;;;;;25.50;41.00;;;;;;4923768;28;45140;-60
2022/09/27 10:55:24;;;;;;;;;;;25.50;41.10;;;;;;4940360;28;44573;-68
2022/09/27 10:57:53;;;;;;;;;;;25.40;41.20;;;;;;4921585;28;45412;-63
2022/09/27 11:00:23;;;;;;;;;;;25.30;41.20;;;;;;4940120;28;45614;-62
2022/09/27 11:02:55;;;;;;;;;;;25.30;41.30;;;;;;4943260;28;45357;-62
2022/09/27 11:05:26;;;;;;;;;;;25.30;41.30;;;;;;4916478;28;45428;-61
2022/09/27 11:07:52;;;;;;;;;;;25.30;41.40;;;;;;4939377;28;45232;-64
2022/09/27 11:10:34;;;;;;;;;;;25.30;41.50;;;;;;4939780;28;44720;-64
2022/09/27 11:13:13;;;;;;;;;;;25.20;41.50;;;;;;4938615;28;45895;-62
2022/09/27 11:15:56;;;;;;;;;;;25.20;41.50;;;;;;4937499;28;45473;-61
2022/09/27 11:18:26;;;;;;;;;;;25.20;41.50;;;;;;4943873;28;45317;-56
2022/09/27 11:20:54;;;;;;;;;;;25.10;41.50;;;;;;4938454;28;45158;-61
2022/09/27 11:23:29;;;;;;;;;;;25.20;41.60;;;;;;4932651;28;46133;-61
2022/09/27 11:26:01;;;;;;;;;;;25.10;41.60;;;;;;4935826;28;45340;-59
2022/09/27 11:28:46;;;;;;;;;;;25.10;41.60;;;;;;4935177;28;45718;-64
2022/09/27 11:31:17;;;;;;;;;;;25.10;41.70;;;;;;4937384;28;45080;-60
2022/09/27 11:34:01;;;;;;;;;;;25.00;41.70;;;;;;4937469;28;45589;-64
2022/09/27 11:36:42;;;;;;;;;;;25.00;41.70;;;;;;4937154;28;45273;-59
2022/09/27 11:39:07;;;;;;;;;;;25.00;41.70;;;;;;4940844;28;45365;-62
2022/09/27 11:41:39;;;;;;;;;;;25.00;41.80;;;;;;4941016;28;45783;-59
2022/09/27 11:44:17;;;;;;;;;;;24.90;41.80;;;;;;4923769;28;45156;-62
2022/09/27 11:46:44;;;;;;;;;;;24.90;41.80;;;;;;4909232;28;44939;-61
2022/09/27 11:49:09;;;;;;;;;;;24.90;41.80;;;;;;4921401;28;45152;-61
2022/09/27 11:51:50;;;;;;;;;;;24.90;41.80;;;;;;4929099;28;44897;-62
2022/09/27 11:54:15;;;;;;;;;;;24.90;41.90;;;;;;4935834;28;47060;-62
2022/09/27 11:56:45;;;;;;;;;;;24.80;41.90;;;;;;4940169;28;45034;-58
2022/09/27 11:59:19;;;;;;;;;;;24.80;42.00;;;;;;4926926;28;45976;-61
2022/09/27 12:01:49;;;;;;;;;;;24.80;42.00;;;;;;4933872;28;44736;-61
2022/09/27 12:04:21;;;;;;;;;;;24.70;42.00;;;;;;4919817;28;45913;-64
2022/09/27 12:06:56;;;;;;;;;;;24.70;42.10;;;;;;4935256;28;45503;-63
2022/09/27 12:09:22;;;;;;;;;;;24.70;42.10;;;;;;4920417;28;44712;-59
2022/09/27 12:11:52;;;;;;;;;;;24.70;42.10;;;;;;4925388;28;45605;-63
2022/09/27 12:14:18;;;;;;;;;;;24.60;42.20;;;;;;4918474;28;48206;-62
2022/09/27 12:16:43;;;;;;;;;;;24.60;42.20;;;;;;4920084;28;45211;-60
2022/09/27 12:19:13;;;;;;;;;;;24.60;42.20;;;;;;4925120;28;45330;-62
2022/09/27 12:21:38;;;;;;;;;;;24.60;42.20;;;;;;4936086;28;45223;-62
2022/09/27 12:24:04;;;;;;;;;;;24.60;42.30;;;;;;4938793;28;46166;-59
2022/09/27 12:26:36;;;;;;;;;;;24.60;42.40;;;;;;4917456;28;45373;-59
2022/09/27 12:29:04;;;;;;;;;;;24.50;42.30;;;;;;4919943;28;45656;-57
2022/09/27 12:31:34;;;;;;;;;;;24.50;42.30;;;;;;4938944;28;45413;-64
2022/09/27 12:34:18;;;;;;;;;;;24.50;42.40;;;;;;4921332;28;45279;-63
2022/09/27 12:36:49;;;;;;;;;;;24.50;42.40;;;;;;4933615;28;45522;-58
2022/09/27 12:39:25;;;;;;;;;;;24.50;42.50;;;;;;4939128;28;45091;-63
2022/09/27 12:41:52;;;;;;;;;;;24.40;42.50;;;;;;4933460;28;45589;-60
2022/09/27 12:44:18;;;;;;;;;;;24.40;42.50;;;;;;4922911;28;46139;-62
2022/09/27 12:46:44;;;;;;;;;;;24.40;42.60;;;;;;4939075;28;46596;-64
2022/09/27 12:49:28;;;;;;;;;;;24.40;42.60;;;;;;4939684;28;45224;-65
2022/09/27 12:51:55;;;;;;;;;;;24.40;42.70;;;;;;4934045;28;45360;-64
2022/09/27 12:54:36;;;;;;;;;;;24.30;42.70;;;;;;4940115;28;47047;-64
2022/09/27 12:57:03;;;;;;;;;;;24.30;42.70;;;;;;4937822;28;45295;-64
2022/09/27 12:59:40;;;;;;;;;;;24.30;42.80;;;;;;4922752;28;45287;-70
2022/09/27 13:02:06;;;;;;;;;;;24.20;42.80;;;;;;4938343;28;45530;-67
2022/09/27 13:04:35;;;;;;;;;;;24.20;42.90;;;;;;4934604;28;45996;-62
2022/09/27 13:07:13;;;;;;;;;;;24.20;43.00;;;;;;4936773;28;45377;-64
2022/09/27 13:09:58;;;;;;;;;;;24.10;42.90;;;;;;4939479;28;45229;-61
2022/09/27 13:12:25;;;;;;;;;;;24.10;43.00;;;;;;4939980;28;45535;-62
2022/09/27 13:14:56;;;;;;;;;;;24.10;43.00;;;;;;4922042;28;46315;-61
2022/09/27 13:17:41;;;;;;;;;;;24.10;43.00;;;;;;4920828;28;46840;-61
2022/09/27 13:20:25;;;;;;;;;;;24.10;43.10;;;;;;4940231;28;45419;-61
2022/09/27 13:22:50;;;;;;;;;;;24.10;43.20;;;;;;4939909;28;45226;-61
2022/09/27 13:25:34;;;;;;;;;;;24.00;43.20;;;;;;4937164;28;46164;-67
2022/09/27 13:28:01;;;;;;;;;;;24.00;43.20;;;;;;4939060;28;44824;-59
2022/09/27 13:30:26;;;;;;;;;;;24.00;43.30;;;;;;4938846;28;44860;-63
2022/09/27 13:33:07;;;;;;;;;;;24.00;43.30;;;;;;4941559;28;44999;-59
2022/09/27 13:35:33;;;;;;;;;;;23.90;43.30;;;;;;4937358;28;47225;-62
2022/09/27 13:37:58;;;;;;;;;;;23.90;43.30;;;;;;4938390;28;44918;-58
2022/09/27 13:40:24;;;;;;;;;;;23.90;43.40;;;;;;4936837;28;45153;-64
2022/09/27 13:43:08;;;;;;;;;;;23.90;43.40;;;;;;4940225;28;45728;-62
2022/09/27 13:45:37;;;;;;;;;;;23.80;43.40;;;;;;4940705;28;46182;-63
2022/09/27 13:48:07;;;;;;;;;;;23.80;43.50;;;;;;4938007;28;45321;-66
2022/09/27 13:50:54;;;;;;;;;;;23.80;43.50;;;;;;4938539;28;45216;-62
2022/09/27 13:53:22;;;;;;;;;;;23.80;43.50;;;;;;4908145;28;45057;-61
2022/09/27 13:55:48;;;;;;;;;;;23.80;43.60;;;;;;4938128;28;46164;-63
2022/09/27 13:58:26;;;;;;;;;;;23.80;43.60;;;;;;4939412;28;45522;-64
2022/09/27 14:00:53;;;;;;;;;;;23.70;43.60;;;;;;4929059;28;45324;-62
2022/09/27 14:04:11;;;;;;;;;;;23.70;43.70;;;;;;4930928;28;45257;-62
2022/09/27 14:06:32;;;;;;;;;;;23.70;43.70;;;;;;4926455;28;46286;-61
2022/09/27 14:08:58;;;;;;;;;;;23.70;43.80;;;;;;4922397;28;45425;-60
2022/09/27 14:11:28;;;;;;;;;;;23.70;43.80;;;;;;4922844;28;45479;-62
2022/09/27 14:13:53;;;;;;;;;;;23.70;43.80;;;;;;4919908;28;45067;-63
2022/09/27 14:16:20;;;;;;;;;;;23.60;43.70;;;;;;4936446;28;45839;-60
2022/09/27 14:19:03;;;;;;;;;;;23.60;43.80;;;;;;4921629;28;45275;-67
2022/09/27 14:21:32;;;;;;;;;;;23.60;43.90;;;;;;4933539;28;45582;-63
2022/09/27 14:24:16;;;;;;;;;;;23.60;43.90;;;;;;4939582;28;45560;-64
2022/09/27 14:26:42;;;;;;;;;;;23.60;43.90;;;;;;4935709;28;44876;-63
2022/09/27 14:29:17;;;;;;;;;;;23.50;43.90;;;;;;4938655;28;44894;-60
2022/09/27 14:31:42;;;;;;;;;;;23.50;43.90;;;;;;4936471;28;45174;-61
2022/09/27 14:34:10;;;;;;;;;;;23.50;44.00;;;;;;4922325;28;44819;-62
2022/09/27 14:39:24;;;;;;;;;;;23.50;44.00;;;;;;4923587;28;45320;-60
2022/09/27 14:41:50;;;;;;;;;;;23.50;44.10;;;;;;4939195;28;44891;-65
2022/09/27 14:44:18;;;;;;;;;;;23.50;44.10;;;;;;4943546;28;46443;-69
2022/09/27 14:46:45;;;;;;;;;;;23.40;44.10;;;;;;4934440;28;46049;-64
2022/09/27 14:49:12;;;;;;;;;;;23.50;44.10;;;;;;4933146;28;45213;-63
2022/09/27 14:51:38;;;;;;;;;;;23.40;44.10;;;;;;4935343;28;45201;-64
2022/09/27 14:54:05;;;;;;;;;;;23.40;44.20;;;;;;4940000;28;45459;-62
2022/09/27 14:56:36;;;;;;;;;;;23.40;44.10;;;;;;4936119;28;45779;-61
2022/09/27 14:59:16;;;;;;;;;;;23.40;44.20;;;;;;4917116;28;44656;-68
2022/09/27 15:01:51;;;;;;;;;;;23.40;44.20;;;;;;4931000;28;45017;-64
2022/09/27 15:04:16;;;;;;;;;;;23.40;44.30;;;;;;4937793;28;45256;-66
2022/09/27 15:06:42;;;;;;;;;;;23.40;44.20;;;;;;4917378;28;46110;-67
2022/09/27 15:09:12;;;;;;;;;;;23.40;44.30;;;;;;4938075;28;45236;-65
2022/09/27 15:11:39;;;;;;;;;;;23.30;44.30;;;;;;4934917;28;45368;-67
2022/09/27 15:14:04;;;;;;;;;;;23.30;44.30;;;;;;4933791;28;46179;-65
2022/09/27 15:16:30;;;;;;;;;;;23.30;44.30;;;;;;4919732;28;45073;-64
2022/09/27 15:19:00;;;;;;;;;;;23.20;44.30;;;;;;4938733;28;45498;-65
2022/09/27 15:21:26;;;;;;;;;;;23.20;44.40;;;;;;4936454;28;45699;-66
2022/09/27 15:23:54;;;;;;;;;;;23.20;44.50;;;;;;4937740;28;45153;-63
2022/09/27 15:26:19;;;;;;;;;;;23.10;44.40;;;;;;4920773;28;46325;-65
2022/09/27 15:28:46;;;;;;;;;;;23.10;44.50;;;;;;4940931;28;44602;-67
2022/09/27 15:31:12;;;;;;;;;;;23.10;44.50;;;;;;4938782;28;44656;-66
2022/09/27 15:33:37;;;;;;;;;;;23.10;44.50;;;;;;4915278;28;45617;-67
2022/09/27 15:36:04;;;;;;;;;;;23.00;44.60;;;;;;4916948;28;47034;-65
2022/09/27 15:38:46;;;;;;;;;;;23.00;44.70;;;;;;4936440;28;45436;-65
2022/09/27 15:41:12;;;;;;;;;;;23.00;44.70;;;;;;4935524;28;45398;-66
2022/09/27 15:43:39;;;;;;;;;;;22.90;44.70;;;;;;4937458;28;45787;-65
2022/09/27 15:46:20;;;;;;;;;;;22.90;44.70;;;;;;4932539;28;45638;-66
2022/09/27 15:48:49;;;;;;;;;;;22.90;44.70;;;;;;4935907;28;45563;-65
2022/09/27 15:51:33;;;;;;;;;;;22.90;44.70;;;;;;4936681;28;45309;-66
2022/09/27 15:53:59;;;;;;;;;;;22.90;44.80;;;;;;4938282;28;45290;-67
2022/09/27 15:56:24;;;;;;;;;;;22.80;44.80;;;;;;4932352;28;46805;-66
2022/09/27 15:58:50;;;;;;;;;;;22.80;44.80;;;;;;4935271;28;45560;-66
2022/09/27 16:01:16;;;;;;;;;;;22.80;44.80;;;;;;4934974;28;44991;-68
2022/09/27 16:03:41;;;;;;;;;;;22.80;44.80;;;;;;4935932;28;45312;-67
2022/09/27 16:06:09;;;;;;;;;;;22.80;44.80;;;;;;4934971;28;45685;-65
2022/09/27 16:08:34;;;;;;;;;;;22.70;44.80;;;;;;4919515;28;45250;-66
2022/09/27 16:11:02;;;;;;;;;;;22.70;44.80;;;;;;4932811;28;45535;-66
2022/09/27 16:13:27;;;;;;;;;;;22.70;44.90;;;;;;4934722;28;45247;-64
2022/09/27 16:15:53;;;;;;;;;;;22.70;44.90;;;;;;4936762;28;44856;-66
2022/09/27 16:18:18;;;;;;;;;;;22.70;44.90;;;;;;4928428;28;45659;-64
2022/09/27 16:20:44;;;;;;;;;;;22.70;45.00;;;;;;4931443;28;45412;-64
2022/09/27 16:23:09;;;;;;;;;;;22.60;44.90;;;;;;4933544;28;45456;-66
2022/09/27 16:25:35;;;;;;;;;;;22.60;44.90;;;;;;4927040;28;45838;-66
2022/09/27 16:28:00;;;;;;;;;;;22.60;44.90;;;;;;4929129;28;46282;-65
2022/09/27 16:30:26;;;;;;;;;;;22.60;45.00;;;;;;4924042;28;45507;-66
2022/09/27 16:32:51;;;;;;;;;;;22.60;45.00;;;;;;4932191;28;45782;-64
2022/09/27 16:35:18;;;;;;;;;;;22.50;44.90;;;;;;4936056;28;46455;-65
2022/09/27 16:37:43;;;;;;;;;;;22.60;45.00;;;;;;4920751;28;45221;-65
2022/09/27 16:40:09;;;;;;;;;;;22.50;44.90;;;;;;4915893;28;45305;-69
2022/09/27 16:42:34;;;;;;;;;;;22.50;45.00;;;;;;4921861;28;44744;-66
2022/09/27 16:45:00;;;;;;;;;;;22.40;45.00;;;;;;4935600;28;46153;-66
2022/09/27 16:47:26;;;;;;;;;;;22.40;45.00;;;;;;4939433;28;44630;-65
2022/09/27 16:52:36;;;;;;;;;;;22.40;45.10;;;;;;4939784;28;45218;-69
2022/09/27 16:55:01;;;;;;;;;;;22.40;45.10;;;;;;4936150;28;46745;-67
2022/09/27 16:57:27;;;;;;;;;;;22.40;45.10;;;;;;4934657;28;44644;-65
2022/09/27 16:59:55;;;;;;;;;;;22.40;45.10;;;;;;4934666;28;45602;-66
2022/09/27 17:02:20;;;;;;;;;;;22.30;45.10;;;;;;4915894;28;46782;-64
2022/09/27 17:04:46;;;;;;;;;;;22.30;45.10;;;;;;4936709;28;46028;-68
2022/09/27 17:07:11;;;;;;;;;;;22.30;45.20;;;;;;4937977;28;45288;-64
2022/09/27 17:09:38;;;;;;;;;;;22.30;45.10;;;;;;4931278;28;45306;-66